Aviation Digital Data Service (ADDS)

Output produced by METARs form (1044 UTC 24 July 2016)
found at http://aviationweather.gov/adds/metars/
 
KDTW 240859Z 2409/2512 10004KT P6SM SCT070 BKN150 
     FM241000 12004KT P6SM -SHRA SCT060 BKN080 
     TEMPO 2410/2411 5SM -SHRA BR OVC050 
     FM241100 15005KT 6SM -SHRA BR SCT050 OVC080 
     FM241300 20007KT P6SM -SHRA BKN040 OVC080 
     TEMPO 2415/2418 2SM TSRA OVC035CB 
     FM241900 22012G20KT P6SM SCT050 BKN100 
     FM250100 20007KT P6SM BKN100 OVC250 
     FM250500 24007KT P6SM OVC040